createdAt,value
2022-11-08T00:01:22.046Z,96483.63
2022-11-08T00:04:20.470Z,96486.47
2022-11-08T00:07:36.425Z,96483.97
2022-11-08T00:10:51.637Z,96490.13
2022-11-08T00:13:58.893Z,96497.25
2022-11-08T00:16:55.709Z,96483.59
2022-11-08T00:19:53.158Z,96482.50
2022-11-08T00:22:49.981Z,96475.59
2022-11-08T00:25:54.405Z,96477.25
2022-11-08T00:28:51.241Z,96483.00
2022-11-08T00:31:48.109Z,96483.78
2022-11-08T00:34:45.093Z,96476.97
2022-11-08T00:37:41.909Z,96474.38
2022-11-08T00:40:38.717Z,96464.31
2022-11-08T00:43:35.626Z,96453.69
2022-11-08T00:46:32.425Z,96462.28
2022-11-08T00:49:29.301Z,96459.94
2022-11-08T00:52:26.426Z,96462.09
2022-11-08T00:55:23.240Z,96469.69
2022-11-08T00:58:23.444Z,96465.97
2022-11-08T01:01:24.438Z,96478.19
2022-11-08T01:04:21.886Z,96474.06
2022-11-08T01:07:18.946Z,96480.38
2022-11-08T01:10:15.820Z,96466.72
2022-11-08T01:13:13.765Z,96468.38
2022-11-08T01:16:17.206Z,96470.13
2022-11-08T01:19:14.101Z,96466.88
2022-11-08T01:22:10.932Z,96452.44
2022-11-08T01:25:08.066Z,96455.03
2022-11-08T01:28:05.931Z,96453.50
2022-11-08T01:31:13.899Z,96450.78
2022-11-08T01:34:10.758Z,96455.47
2022-11-08T01:37:07.636Z,96457.44
2022-11-08T01:40:05.428Z,96458.88
2022-11-08T01:43:35.768Z,96459.81
2022-11-08T01:46:39.473Z,96448.34
2022-11-08T01:49:46.024Z,96442.97
2022-11-08T01:52:45.525Z,96448.03
2022-11-08T01:55:42.906Z,96439.47
2022-11-08T01:58:41.305Z,96443.28
2022-11-08T02:01:38.439Z,96433.84
2022-11-08T02:04:36.024Z,96440.66
2022-11-08T02:07:34.677Z,96430.56
2022-11-08T02:10:42.344Z,96428.84
2022-11-08T02:13:40.315Z,96414.34
2022-11-08T02:16:37.192Z,96421.50
2022-11-08T02:19:45.625Z,96414.44
2022-11-08T02:22:54.275Z,96417.59
2022-11-08T02:25:51.144Z,96416.56
2022-11-08T02:28:49.287Z,96415.03
2022-11-08T02:31:46.143Z,96412.09
2022-11-08T02:34:48.167Z,96401.09
2022-11-08T02:37:46.902Z,96401.91
2022-11-08T02:40:49.295Z,96401.72
2022-11-08T02:43:46.149Z,96396.97
2022-11-08T02:46:43.081Z,96402.97
2022-11-08T02:49:40.034Z,96395.44
2022-11-08T02:52:36.891Z,96390.91
2022-11-08T02:55:35.193Z,96395.69
2022-11-08T02:58:32.119Z,96396.63
2022-11-08T03:01:29.135Z,96396.91
2022-11-08T03:04:26.138Z,96407.41
2022-11-08T03:07:25.036Z,96398.31
2022-11-08T03:10:23.823Z,96396.38
2022-11-08T03:13:20.859Z,96395.47
2022-11-08T03:16:17.851Z,96388.28
2022-11-08T03:19:14.733Z,96388.78
2022-11-08T03:22:11.590Z,96400.91
2022-11-08T03:25:08.704Z,96402.88
2022-11-08T03:28:08.882Z,96400.75
2022-11-08T03:31:06.011Z,96396.44
2022-11-08T03:34:02.884Z,96393.88
2022-11-08T03:37:00.275Z,96392.59
2022-11-08T03:39:57.196Z,96395.22
2022-11-08T03:42:57.469Z,96393.41
2022-11-08T03:45:54.377Z,96395.69
2022-11-08T03:48:51.231Z,96387.63
2022-11-08T03:51:48.097Z,96391.69
2022-11-08T03:54:44.930Z,96395.41
2022-11-08T03:57:42.997Z,96403.84
2022-11-08T04:00:40.142Z,96401.44
2022-11-08T04:03:37.018Z,96404.28
2022-11-08T04:06:33.916Z,96408.59
2022-11-08T04:09:30.848Z,96403.91
2022-11-08T04:12:46.397Z,96405.88
2022-11-08T04:15:43.368Z,96413.00
2022-11-08T04:18:58.783Z,96398.97
2022-11-08T04:21:56.690Z,96397.47
2022-11-08T04:24:53.564Z,96395.66
2022-11-08T04:27:50.455Z,96403.25
2022-11-08T04:31:13.285Z,96404.28
2022-11-08T04:34:10.317Z,96400.31
2022-11-08T04:37:08.468Z,96401.03
2022-11-08T04:40:06.058Z,96402.06
2022-11-08T04:43:02.898Z,96405.81
2022-11-08T04:46:05.274Z,96400.50
2022-11-08T04:49:02.159Z,96405.59
2022-11-08T04:51:59.038Z,96394.66
2022-11-08T04:54:55.845Z,96383.06
2022-11-08T04:57:57.164Z,96384.69
2022-11-08T05:00:54.005Z,96385.34
2022-11-08T05:03:52.965Z,96386.06
2022-11-08T05:06:49.916Z,96380.31
2022-11-08T05:09:46.801Z,96376.13
2022-11-08T05:12:43.723Z,96363.41
2022-11-08T05:15:40.595Z,96370.34
2022-11-08T05:18:37.456Z,96360.00
2022-11-08T05:21:52.999Z,96359.75
2022-11-08T05:24:49.860Z,96362.69
2022-11-08T05:27:46.726Z,96352.06
2022-11-08T05:30:43.696Z,96353.13
2022-11-08T05:33:40.910Z,96344.13
2022-11-08T05:36:37.761Z,96346.25
2022-11-08T05:39:34.646Z,96340.47
2022-11-08T05:42:31.467Z,96348.06
2022-11-08T05:45:28.656Z,96343.03
2022-11-08T05:48:25.733Z,96337.22
2022-11-08T05:51:22.617Z,96326.97
2022-11-08T05:54:19.427Z,96343.47
2022-11-08T05:57:21.123Z,96334.72
2022-11-08T06:00:20.175Z,96328.16
2022-11-08T06:03:23.651Z,96335.28
2022-11-08T06:06:22.127Z,96332.34
2022-11-08T06:09:19.316Z,96329.47
2022-11-08T06:12:16.178Z,96325.75
2022-11-08T06:15:13.070Z,96324.16
2022-11-08T06:18:09.887Z,96330.47
2022-11-08T06:21:10.896Z,96320.41
2022-11-08T06:24:08.144Z,96326.53
2022-11-08T06:27:05.293Z,96325.75
2022-11-08T06:30:03.672Z,96318.88
2022-11-08T06:33:00.518Z,96323.84
2022-11-08T06:35:57.582Z,96330.47
2022-11-08T06:38:55.776Z,96318.34
2022-11-08T06:41:52.615Z,96318.84
2022-11-08T06:44:49.518Z,96330.97
2022-11-08T06:47:46.693Z,96340.03
2022-11-08T06:50:44.290Z,96340.28
2022-11-08T06:53:41.556Z,96344.53
2022-11-08T06:56:38.397Z,96351.13
2022-11-08T06:59:35.225Z,96355.63
2022-11-08T07:02:32.277Z,96351.06
2022-11-08T07:05:31.531Z,96350.25
2022-11-08T07:08:28.408Z,96347.25
2022-11-08T07:11:25.663Z,96343.25
2022-11-08T07:14:22.853Z,96349.88
2022-11-08T07:17:19.670Z,96344.06
2022-11-08T07:20:16.543Z,96349.13
2022-11-08T07:23:14.563Z,96341.91
2022-11-08T07:26:13.111Z,96348.56
2022-11-08T07:29:14.771Z,96352.00
2022-11-08T07:32:12.703Z,96343.69
2022-11-08T07:35:09.820Z,96342.69
2022-11-08T07:38:07.343Z,96336.94
2022-11-08T07:41:07.257Z,96344.16
2022-11-08T07:44:04.184Z,96341.59
2022-11-08T07:47:01.089Z,96339.84
2022-11-08T07:49:57.925Z,96331.41
2022-11-08T07:52:55.060Z,96338.78
2022-11-08T07:55:52.261Z,96335.75
2022-11-08T07:58:49.188Z,96333.84
2022-11-08T08:01:46.032Z,96336.50
2022-11-08T08:04:42.981Z,96342.88
2022-11-08T08:07:40.277Z,96349.13
2022-11-08T08:10:37.550Z,96349.75
2022-11-08T08:13:34.411Z,96346.72
2022-11-08T08:16:31.430Z,96338.44
2022-11-08T08:19:28.306Z,96332.38
2022-11-08T08:22:25.191Z,96346.50
2022-11-08T08:25:22.293Z,96330.19
2022-11-08T08:28:19.115Z,96340.03
2022-11-08T08:31:16.309Z,96334.31
2022-11-08T08:34:15.559Z,96335.06
2022-11-08T08:37:15.363Z,96325.47
2022-11-08T08:40:12.560Z,96322.50
2022-11-08T08:43:09.380Z,96334.09
2022-11-08T08:46:07.286Z,96332.22
2022-11-08T08:49:04.640Z,96329.22
2022-11-08T08:52:01.907Z,96346.44
2022-11-08T08:54:58.862Z,96347.09
2022-11-08T08:57:56.521Z,96346.22
2022-11-08T09:04:10.280Z,96346.25
2022-11-08T09:07:07.486Z,96345.38
2022-11-08T09:10:07.060Z,96342.91
2022-11-08T09:13:04.228Z,96327.47
2022-11-08T09:16:02.866Z,96336.53
2022-11-08T09:18:59.757Z,96346.75
2022-11-08T09:21:56.659Z,96354.28
2022-11-08T09:24:53.646Z,96344.19
2022-11-08T09:27:51.020Z,96353.97
2022-11-08T09:30:47.852Z,96341.00
2022-11-08T09:33:44.691Z,96343.06
2022-11-08T09:36:41.525Z,96349.66
2022-11-08T09:39:38.396Z,96347.22
2022-11-08T09:43:21.101Z,96353.59
2022-11-08T09:46:38.210Z,96343.00
2022-11-08T09:50:06.566Z,96342.03
2022-11-08T09:53:19.047Z,96343.38
2022-11-08T09:56:23.483Z,96330.84
2022-11-08T09:59:32.565Z,96322.41
2022-11-08T10:02:30.651Z,96318.25
2022-11-08T10:05:34.874Z,96314.00
2022-11-08T10:08:44.118Z,96324.44
2022-11-08T10:12:09.738Z,96309.38
2022-11-08T10:16:01.101Z,96313.94
2022-11-08T10:19:09.750Z,96294.78
2022-11-08T10:22:27.225Z,96298.75
2022-11-08T10:25:38.387Z,96288.41
2022-11-08T10:28:41.856Z,96278.06
2022-11-08T10:31:41.757Z,96286.69
2022-11-08T10:35:44.203Z,96289.41
2022-11-08T10:38:59.930Z,96292.22
2022-11-08T10:42:18.341Z,96287.53
2022-11-08T10:45:15.247Z,96297.16
2022-11-08T10:48:12.709Z,96285.13
2022-11-08T10:51:09.550Z,96299.34
2022-11-08T10:54:07.313Z,96288.63
2022-11-08T10:57:04.219Z,96289.38
2022-11-08T11:00:19.726Z,96283.69
2022-11-08T11:03:28.798Z,96285.31
2022-11-08T11:06:32.861Z,96274.47
2022-11-08T11:09:29.909Z,96272.63
2022-11-08T11:12:26.888Z,96275.66
2022-11-08T11:15:23.751Z,96271.47
2022-11-08T11:18:49.088Z,96267.41
2022-11-08T11:21:54.564Z,96268.22
2022-11-08T11:24:54.104Z,96262.56
2022-11-08T11:28:00.853Z,96243.59
2022-11-08T11:31:13.128Z,96238.81
2022-11-08T11:34:19.031Z,96239.78
2022-11-08T11:37:34.114Z,96227.56
2022-11-08T11:40:45.612Z,96215.06
2022-11-08T11:43:56.541Z,96213.31
2022-11-08T11:47:06.914Z,96207.84
2022-11-08T11:50:41.680Z,96203.75
2022-11-08T11:53:39.790Z,96201.78
2022-11-08T11:57:16.738Z,96198.06
2022-11-08T12:00:16.138Z,96183.75
2022-11-08T12:03:39.062Z,96187.41
2022-11-08T12:07:19.170Z,96175.16
2022-11-08T12:10:50.297Z,96181.00
2022-11-08T12:13:59.751Z,96175.88
2022-11-08T12:17:19.057Z,96159.19
2022-11-08T12:20:35.522Z,96161.41
2022-11-08T12:24:18.111Z,96157.50
2022-11-08T12:27:50.021Z,96169.16
2022-11-08T12:31:03.058Z,96179.47
2022-11-08T12:34:33.587Z,96174.09
2022-11-08T12:37:33.078Z,96167.28
2022-11-08T12:40:51.204Z,96177.69
2022-11-08T12:44:09.774Z,96180.28
2022-11-08T12:47:28.924Z,96177.66
2022-11-08T12:50:56.324Z,96179.59
2022-11-08T12:54:36.514Z,96174.31
2022-11-08T12:57:33.509Z,96174.31
2022-11-08T13:00:31.029Z,96165.78
2022-11-08T13:03:51.597Z,96156.34
2022-11-08T13:07:19.015Z,96154.66
2022-11-08T13:10:24.781Z,96158.59
2022-11-08T13:13:58.449Z,96165.41
2022-11-08T13:17:20.168Z,96161.88
2022-11-08T13:20:48.227Z,96148.94
2022-11-08T13:23:45.284Z,96140.19
2022-11-08T13:26:43.362Z,96141.94
2022-11-08T13:29:40.753Z,96149.31
2022-11-08T13:32:43.882Z,96143.50
2022-11-08T13:35:53.008Z,96141.63
2022-11-08T13:39:22.767Z,96152.59
2022-11-08T13:42:19.859Z,96147.41
2022-11-08T13:45:17.117Z,96144.38
2022-11-08T13:48:26.529Z,96136.00
2022-11-08T13:51:33.614Z,96141.38
2022-11-08T13:54:50.890Z,96129.66
2022-11-08T13:57:58.727Z,96146.47
2022-11-08T14:00:56.132Z,96130.81
2022-11-08T14:03:56.275Z,96127.84
2022-11-08T14:07:25.386Z,96141.75
2022-11-08T14:10:39.919Z,96131.97
2022-11-08T14:14:17.220Z,96134.38
2022-11-08T14:17:29.885Z,96131.75
2022-11-08T14:20:34.818Z,96134.81
2022-11-08T14:23:36.482Z,96140.72
2022-11-08T14:26:33.332Z,96141.47
2022-11-08T14:29:30.383Z,96156.41
2022-11-08T14:32:27.341Z,96144.28
2022-11-08T14:35:25.952Z,96148.91
2022-11-08T14:38:23.131Z,96138.44
2022-11-08T14:41:27.793Z,96143.22
2022-11-08T14:44:26.088Z,96146.72
2022-11-08T14:47:27.583Z,96135.66
2022-11-08T14:50:32.571Z,96126.66
2022-11-08T14:53:33.686Z,96132.78
2022-11-08T14:56:38.720Z,96130.56
2022-11-08T14:59:35.578Z,96144.28
2022-11-08T15:02:33.464Z,96139.03
2022-11-08T15:05:55.120Z,96153.38
2022-11-08T15:08:55.154Z,96149.91
2022-11-08T15:11:58.225Z,96158.91
2022-11-08T15:15:00.474Z,96160.66
2022-11-08T15:18:15.074Z,96164.44
2022-11-08T15:21:11.823Z,96163.63
2022-11-08T15:24:15.251Z,96159.88
2022-11-08T15:27:11.951Z,96168.59
2022-11-08T15:30:17.153Z,96165.38
2022-11-08T15:33:35.554Z,96161.81
2022-11-08T15:36:36.163Z,96152.47
2022-11-08T15:39:39.653Z,96156.59
2022-11-08T15:42:45.764Z,96169.34
2022-11-08T15:45:53.405Z,96165.50
2022-11-08T15:48:57.750Z,96161.63
2022-11-08T15:51:58.526Z,96167.34
2022-11-08T15:54:55.323Z,96158.19
2022-11-08T15:57:52.587Z,96159.28
2022-11-08T16:00:50.147Z,96165.38
2022-11-08T16:03:48.428Z,96163.53
2022-11-08T16:06:45.460Z,96170.03
2022-11-08T16:09:42.385Z,96156.31
2022-11-08T16:12:42.828Z,96155.13
2022-11-08T16:15:39.703Z,96165.44
2022-11-08T16:18:36.634Z,96166.06
2022-11-08T16:21:33.473Z,96176.84
2022-11-08T16:24:30.372Z,96168.97
2022-11-08T16:27:27.209Z,96161.34
2022-11-08T16:30:24.444Z,96162.13
2022-11-08T16:33:24.396Z,96157.53
2022-11-08T16:36:24.644Z,96157.13
2022-11-08T16:39:28.259Z,96174.03
2022-11-08T16:42:25.855Z,96170.13
2022-11-08T16:45:43.423Z,96173.84
2022-11-08T16:48:47.384Z,96166.75
2022-11-08T16:51:44.222Z,96165.16
2022-11-08T16:54:41.119Z,96172.47
2022-11-08T16:57:37.927Z,96158.34
2022-11-08T17:00:34.957Z,96167.72
2022-11-08T17:03:32.600Z,96152.03
2022-11-08T17:06:29.472Z,96167.31
2022-11-08T17:09:26.523Z,96172.28
2022-11-08T17:12:23.461Z,96173.44
2022-11-08T17:15:27.249Z,96180.56
2022-11-08T17:18:24.254Z,96178.91
2022-11-08T17:24:38.676Z,96181.03
2022-11-08T17:27:35.559Z,96187.69
2022-11-08T17:30:32.734Z,96189.09
2022-11-08T17:33:29.719Z,96192.78
2022-11-08T17:36:26.576Z,96187.75
2022-11-08T17:39:23.426Z,96184.13
2022-11-08T17:42:20.220Z,96188.66
2022-11-08T17:45:17.057Z,96188.47
2022-11-08T17:48:13.915Z,96185.50
2022-11-08T17:51:12.021Z,96189.94
2022-11-08T17:54:08.913Z,96191.88
2022-11-08T17:57:05.743Z,96200.59
2022-11-08T18:00:08.600Z,96190.59
2022-11-08T18:03:12.556Z,96200.44
2022-11-08T18:06:13.224Z,96191.81
2022-11-08T18:09:10.470Z,96182.56
2022-11-08T18:12:07.397Z,96195.25
2022-11-08T18:15:06.179Z,96190.97
2022-11-08T18:18:03.207Z,96199.50
2022-11-08T18:21:00.013Z,96190.59
2022-11-08T18:23:59.759Z,96186.53
2022-11-08T18:26:56.743Z,96184.00
2022-11-08T18:29:53.567Z,96186.38
2022-11-08T18:32:50.472Z,96191.03
2022-11-08T18:35:47.463Z,96204.75
2022-11-08T18:38:45.814Z,96202.59
2022-11-08T18:41:42.683Z,96192.59
2022-11-08T18:44:40.600Z,96199.63
2022-11-08T18:47:37.440Z,96208.47
2022-11-08T18:50:35.403Z,96208.78
2022-11-08T18:53:32.811Z,96200.59
2022-11-08T18:56:29.827Z,96198.63
2022-11-08T18:59:26.659Z,96199.00
2022-11-08T19:02:23.717Z,96187.88
2022-11-08T19:05:20.547Z,96188.66
2022-11-08T19:08:21.945Z,96189.34
2022-11-08T19:11:22.769Z,96178.88
2022-11-08T19:14:19.872Z,96177.91
2022-11-08T19:17:16.706Z,96167.31
2022-11-08T19:20:13.652Z,96174.00
2022-11-08T19:23:10.574Z,96185.28
2022-11-08T19:26:17.931Z,96185.09
2022-11-08T19:29:14.762Z,96179.53
2022-11-08T19:32:11.658Z,96194.34
2022-11-08T19:35:08.798Z,96182.69
2022-11-08T19:38:06.080Z,96186.84
2022-11-08T19:41:06.606Z,96188.66
2022-11-08T19:44:05.295Z,96177.66
2022-11-08T19:47:02.199Z,96188.50
2022-11-08T19:49:59.010Z,96182.53
2022-11-08T19:52:55.885Z,96173.00
2022-11-08T19:56:04.889Z,96176.75
2022-11-08T19:59:02.449Z,96165.91
2022-11-08T20:01:59.999Z,96167.28
2022-11-08T20:04:57.037Z,96165.28
2022-11-08T20:07:53.917Z,96162.63
2022-11-08T20:10:51.559Z,96169.94
2022-11-08T20:13:48.610Z,96164.63
2022-11-08T20:16:49.356Z,96171.59
2022-11-08T20:19:50.702Z,96158.63
2022-11-08T20:22:48.373Z,96159.34
2022-11-08T20:25:45.270Z,96170.44
2022-11-08T20:28:55.197Z,96169.16
2022-11-08T20:31:54.344Z,96167.34
2022-11-08T20:34:51.516Z,96172.56
2022-11-08T20:37:48.457Z,96176.38
2022-11-08T20:40:45.295Z,96179.50
2022-11-08T20:43:44.659Z,96172.00
2022-11-08T20:46:41.598Z,96185.47
2022-11-08T20:49:38.445Z,96185.63
2022-11-08T20:52:35.267Z,96191.59
2022-11-08T20:55:32.358Z,96188.88
2022-11-08T20:58:31.969Z,96181.72
2022-11-08T21:01:30.590Z,96191.81
2022-11-08T21:04:27.453Z,96181.13
2022-11-08T21:10:43.199Z,96184.91
2022-11-08T21:13:43.609Z,96182.19
2022-11-08T21:17:06.589Z,96181.81
2022-11-08T21:19:57.231Z,96171.34
2022-11-08T21:22:54.049Z,96164.31
2022-11-08T21:25:51.309Z,96166.75
2022-11-08T21:28:48.231Z,96173.34
2022-11-08T21:31:45.039Z,96176.53
2022-11-08T21:34:45.827Z,96179.72
2022-11-08T21:37:43.156Z,96173.34
2022-11-08T21:40:40.067Z,96182.69
2022-11-08T21:43:39.705Z,96173.75
2022-11-08T21:46:36.554Z,96172.78
2022-11-08T21:49:33.387Z,96185.19
2022-11-08T21:52:30.349Z,96185.06
2022-11-08T21:55:28.580Z,96186.69
2022-11-08T21:58:25.426Z,96181.50
2022-11-08T22:01:25.563Z,96187.41
2022-11-08T22:04:26.574Z,96183.19
2022-11-08T22:07:23.468Z,96180.78
2022-11-08T22:10:20.414Z,96169.88
2022-11-08T22:13:17.495Z,96171.22
2022-11-08T22:16:14.361Z,96172.09
2022-11-08T22:19:11.597Z,96169.94
2022-11-08T22:22:09.085Z,96168.56
2022-11-08T22:25:06.492Z,96171.94
2022-11-08T22:28:03.336Z,96162.34
2022-11-08T22:31:00.258Z,96163.41
2022-11-08T22:33:57.176Z,96165.41
2022-11-08T22:36:53.997Z,96161.84
2022-11-08T22:39:50.814Z,96158.91
2022-11-08T22:42:47.598Z,96170.75
2022-11-08T22:45:44.626Z,96160.56
2022-11-08T22:48:41.728Z,96156.44
2022-11-08T22:51:39.921Z,96167.69
2022-11-08T22:54:36.815Z,96162.78
2022-11-08T22:57:33.604Z,96156.25
2022-11-08T23:00:30.555Z,96159.34
2022-11-08T23:03:27.372Z,96146.69
2022-11-08T23:06:24.219Z,96140.19
2022-11-08T23:09:21.126Z,96129.91
2022-11-08T23:12:36.387Z,96143.34
2022-11-08T23:15:53.635Z,96139.09
2022-11-08T23:19:09.063Z,96132.06
2022-11-08T23:22:28.538Z,96131.94
2022-11-08T23:25:25.366Z,96121.31
2022-11-08T23:28:41.119Z,96132.69
2022-11-08T23:31:38.037Z,96134.06
2022-11-08T23:34:34.836Z,96137.66
2022-11-08T23:37:31.657Z,96138.38
2022-11-08T23:40:47.282Z,96127.06
2022-11-08T23:44:02.496Z,96132.66
2022-11-08T23:47:01.119Z,96124.66
2022-11-08T23:49:57.958Z,96135.25
2022-11-08T23:52:54.790Z,96129.84
2022-11-08T23:55:53.533Z,96132.47
2022-11-08T23:58:55.974Z,96129.47
